Time;durP1;ratioP1;P1;durP2;ratioP2;P2;SDS_P1;SDS_P2;PMS_P1;PMS_P2;Temp;Humidity;BMP_temperature;BMP_pressure;BME280_temperature;BME280_humidity;BME280_pressure;Samples;Min_cycle;Max_cycle;Signal;HPM_P1;HPM_P2
2022/12/29 00:01:57;;;;;;;127.15;11.38;;;;;;;;;;5092404;28;20024;-69
2022/12/29 00:04:23;;;;;;;99.30;9.02;;;;;;;;;;5091955;28;20040;-71
2022/12/29 00:06:48;;;;;;;113.35;9.00;;;;;;;;;;5107654;28;20023;-71
2022/12/29 00:09:15;;;;;;;79.97;8.27;;;;;;;;;;5092008;28;20028;-71
2022/12/29 00:11:40;;;;;;;30.88;6.85;;;;;;;;;;5092289;28;20411;-71
2022/12/29 00:16:50;;;;;;;37.85;7.30;;;;;;;;;;5092308;28;20437;-72
2022/12/29 00:35:39;;;;;;;36.83;8.57;;;;;;;;;;5091873;28;20541;-72
2022/12/29 00:46:19;;;;;;;80.85;9.88;;;;;;;;;;5091872;28;20023;-71
2022/12/29 00:51:28;;;;;;;83.05;10.00;;;;;;;;;;5091828;28;20511;-72
2022/12/29 00:53:53;;;;;;;74.65;8.73;;;;;;;;;;5091977;28;20047;-71
2022/12/29 00:56:19;;;;;;;41.15;7.38;;;;;;;;;;5091602;28;20077;-72
2022/12/29 00:58:44;;;;;;;28.25;6.80;;;;;;;;;;5091945;28;20040;-71
2022/12/29 01:01:10;;;;;;;23.45;6.00;;;;;;;;;;5090329;28;20020;-71
2022/12/29 01:03:36;;;;;;;18.33;4.88;;;;;;;;;;5091400;28;20044;-73
2022/12/29 01:06:02;;;;;;;29.27;6.55;;;;;;;;;;5090334;28;20016;-72
2022/12/29 01:08:28;;;;;;;41.20;6.78;;;;;;;;;;5091491;28;20099;-72
2022/12/29 01:11:00;;;;;;;52.80;7.68;;;;;;;;;;5091439;28;20158;-70
2022/12/29 01:13:26;;;;;;;71.05;7.47;;;;;;;;;;5090378;28;20043;-71
2022/12/29 01:15:51;;;;;;;110.03;9.13;;;;;;;;;;5091683;28;20465;-70
2022/12/29 01:18:17;;;;;;;74.97;8.43;;;;;;;;;;5095294;28;20408;-71
2022/12/29 01:20:42;;;;;;;128.63;9.68;;;;;;;;;;5094172;28;20020;-71
2022/12/29 01:23:08;;;;;;;50.30;6.63;;;;;;;;;;5095685;28;20028;-71
2022/12/29 01:25:33;;;;;;;125.88;9.27;;;;;;;;;;5093857;28;20112;-71
2022/12/29 01:27:59;;;;;;;40.58;6.97;;;;;;;;;;5094167;28;20020;-70
2022/12/29 01:30:24;;;;;;;59.53;7.68;;;;;;;;;;5095192;28;20414;-72
2022/12/29 01:32:50;;;;;;;29.73;6.90;;;;;;;;;;5093754;28;20020;-71
2022/12/29 01:35:16;;;;;;;38.80;7.10;;;;;;;;;;5093678;28;20053;-70
2022/12/29 01:37:42;;;;;;;46.00;7.47;;;;;;;;;;5093899;28;20055;-71
2022/12/29 01:40:07;;;;;;;80.43;8.68;;;;;;;;;;5093659;28;20522;-72
2022/12/29 01:42:33;;;;;;;46.47;7.63;;;;;;;;;;5095031;28;20048;-72
2022/12/29 01:45:17;;;;;;;142.65;12.00;;;;;;;;;;5094650;28;20093;-71
2022/12/29 01:47:57;;;;;;;65.65;7.57;;;;;;;;;;5094944;28;20016;-73
2022/12/29 01:50:33;;;;;;;34.97;6.88;;;;;;;;;;5093426;28;20036;-73
2022/12/29 01:53:01;;;;;;;62.83;7.72;;;;;;;;;;5093371;28;20023;-73
2022/12/29 01:55:29;;;;;;;36.50;6.30;;;;;;;;;;5093503;28;20016;-73
2022/12/29 01:57:57;;;;;;;40.00;5.72;;;;;;;;;;5093230;28;20503;-70
2022/12/29 02:00:22;;;;;;;40.20;7.25;;;;;;;;;;5094549;28;20027;-71
2022/12/29 02:02:50;;;;;;;194.15;13.43;;;;;;;;;;5094290;28;20433;-72
2022/12/29 02:05:45;;;;;;;47.85;6.70;;;;;;;;;;5092729;28;20031;-71
2022/12/29 02:08:11;;;;;;;51.13;6.57;;;;;;;;;;5080798;28;20032;-71
2022/12/29 02:10:37;;;;;;;57.10;6.63;;;;;;;;;;5093027;28;20058;-71
2022/12/29 02:13:03;;;;;;;67.97;7.53;;;;;;;;;;5092708;28;20043;-71
2022/12/29 02:15:41;;;;;;;31.48;5.65;;;;;;;;;;5094264;28;20107;-71
2022/12/29 02:18:09;;;;;;;121.78;9.63;;;;;;;;;;5094266;28;20016;-73
2022/12/29 02:20:50;;;;;;;69.47;8.82;;;;;;;;;;5092977;28;20516;-73
2022/12/29 02:23:34;;;;;;;144.60;10.55;;;;;;;;;;5092915;28;20485;-73
2022/12/29 02:26:00;;;;;;;28.48;5.85;;;;;;;;;;5093187;28;20020;-74
2022/12/29 02:28:28;;;;;;;27.27;5.75;;;;;;;;;;5093025;28;20502;-73
2022/12/29 02:31:12;;;;;;;22.10;5.63;;;;;;;;;;5092927;28;20036;-71
2022/12/29 02:33:43;;;;;;;27.75;5.65;;;;;;;;;;5094108;28;20039;-71
2022/12/29 02:36:29;;;;;;;28.02;5.80;;;;;;;;;;5092855;28;20030;-71
2022/12/29 02:39:02;;;;;;;52.22;7.45;;;;;;;;;;5094066;28;20024;-72
2022/12/29 02:41:31;;;;;;;38.28;6.10;;;;;;;;;;5092521;28;20111;-71
2022/12/29 02:44:01;;;;;;;49.05;5.88;;;;;;;;;;5094100;28;20012;-71
2022/12/29 02:46:27;;;;;;;199.30;13.82;;;;;;;;;;5092466;28;20016;-72
2022/12/29 02:48:53;;;;;;;52.63;6.88;;;;;;;;;;5093477;28;20468;-71
2022/12/29 02:51:21;;;;;;;29.35;6.75;;;;;;;;;;5093475;28;20119;-73
2022/12/29 02:56:30;;;;;;;34.22;7.25;;;;;;;;;;5093765;28;20058;-74
2022/12/29 02:58:55;;;;;;;16.92;5.65;;;;;;;;;;5093282;28;20028;-72
2022/12/29 03:01:33;;;;;;;21.48;6.05;;;;;;;;;;5092511;28;20369;-72
2022/12/29 03:03:59;;;;;;;16.25;4.97;;;;;;;;;;5093609;28;20067;-73
2022/12/29 03:06:40;;;;;;;19.90;6.25;;;;;;;;;;5093311;28;20357;-72
2022/12/29 03:09:24;;;;;;;20.75;6.93;;;;;;;;;;5093353;28;20145;-73
2022/12/29 03:12:10;;;;;;;21.25;7.47;;;;;;;;;;5091629;28;20055;-74
2022/12/29 03:17:26;;;;;;;21.70;7.85;;;;;;;;;;5092887;28;20031;-73
2022/12/29 03:19:52;;;;;;;21.27;6.35;;;;;;;;;;5091844;28;20022;-73
2022/12/29 03:22:27;;;;;;;24.75;8.27;;;;;;;;;;5092866;28;20020;-73
2022/12/29 03:24:57;;;;;;;20.35;7.57;;;;;;;;;;5091811;28;20506;-73
2022/12/29 03:27:26;;;;;;;23.42;8.48;;;;;;;;;;5091729;28;20871;-73
2022/12/29 03:29:54;;;;;;;21.55;7.25;;;;;;;;;;5091449;28;20024;-72
2022/12/29 03:32:21;;;;;;;23.58;8.52;;;;;;;;;;5091476;28;20028;-73
2022/12/29 03:34:49;;;;;;;19.52;8.10;;;;;;;;;;5091659;28;20016;-73
2022/12/29 03:37:16;;;;;;;30.05;8.90;;;;;;;;;;5092976;28;20050;-73
2022/12/29 03:39:43;;;;;;;19.40;9.10;;;;;;;;;;5092112;28;20013;-72
2022/12/29 03:42:13;;;;;;;23.60;8.90;;;;;;;;;;5091088;28;20240;-72
2022/12/29 03:44:39;;;;;;;25.35;8.73;;;;;;;;;;5091321;28;20139;-71
2022/12/29 03:47:06;;;;;;;22.45;7.72;;;;;;;;;;5090971;28;20400;-71
2022/12/29 03:49:31;;;;;;;20.85;7.40;;;;;;;;;;5092311;28;20470;-71
2022/12/29 03:51:56;;;;;;;18.70;6.90;;;;;;;;;;5091513;28;20115;-73
2022/12/29 03:54:22;;;;;;;16.50;8.05;;;;;;;;;;5091334;28;20020;-73
2022/12/29 03:56:47;;;;;;;20.38;8.68;;;;;;;;;;5092399;28;20016;-70
2022/12/29 03:59:13;;;;;;;17.13;7.88;;;;;;;;;;5092600;28;20457;-72
2022/12/29 04:01:38;;;;;;;16.35;7.80;;;;;;;;;;5093239;28;20020;-71
2022/12/29 04:04:04;;;;;;;17.17;7.03;;;;;;;;;;5092855;28;20048;-72
2022/12/29 04:06:29;;;;;;;12.50;6.28;;;;;;;;;;5092262;28;20024;-71
2022/12/29 04:08:55;;;;;;;15.82;7.85;;;;;;;;;;5091218;28;20103;-72
2022/12/29 04:11:21;;;;;;;14.95;7.50;;;;;;;;;;5092155;28;20102;-73
2022/12/29 04:13:46;;;;;;;13.23;6.90;;;;;;;;;;5092171;28;20016;-73
2022/12/29 04:16:12;;;;;;;13.27;6.65;;;;;;;;;;5092131;28;20123;-72
2022/12/29 04:18:37;;;;;;;11.75;6.60;;;;;;;;;;5090777;28;20073;-72
2022/12/29 04:21:03;;;;;;;15.60;7.13;;;;;;;;;;5092059;28;20025;-72
2022/12/29 04:23:34;;;;;;;16.27;7.80;;;;;;;;;;5092311;28;20111;-72
2022/12/29 04:26:00;;;;;;;17.02;8.38;;;;;;;;;;5092268;28;20035;-72
2022/12/29 04:28:25;;;;;;;9.85;5.40;;;;;;;;;;5092201;28;20018;-72
2022/12/29 04:30:51;;;;;;;12.98;6.05;;;;;;;;;;5090523;28;20028;-73
2022/12/29 04:33:17;;;;;;;12.10;7.90;;;;;;;;;;5092300;28;20016;-71
2022/12/29 04:35:43;;;;;;;13.82;7.20;;;;;;;;;;5091898;28;20357;-73
2022/12/29 04:38:08;;;;;;;12.55;6.85;;;;;;;;;;5092193;28;20020;-73
2022/12/29 04:40:33;;;;;;;17.65;6.60;;;;;;;;;;5090651;28;20018;-72
2022/12/29 04:42:59;;;;;;;13.52;7.55;;;;;;;;;;5091664;28;20026;-72
2022/12/29 04:45:24;;;;;;;10.90;6.25;;;;;;;;;;5090486;28;20418;-72
2022/12/29 04:47:50;;;;;;;18.80;7.25;;;;;;;;;;5090479;28;20119;-73
2022/12/29 04:50:15;;;;;;;12.05;6.45;;;;;;;;;;5091771;28;20032;-72
2022/12/29 04:52:41;;;;;;;12.60;6.65;;;;;;;;;;5093511;28;20028;-73
2022/12/29 04:55:06;;;;;;;16.90;6.78;;;;;;;;;;5094426;28;20028;-72
2022/12/29 04:57:32;;;;;;;10.95;5.45;;;;;;;;;;5094363;28;20145;-73
2022/12/29 04:59:58;;;;;;;10.55;6.32;;;;;;;;;;5094340;28;20065;-71
2022/12/29 05:02:23;;;;;;;12.70;7.78;;;;;;;;;;5095574;28;20103;-71
2022/12/29 05:04:48;;;;;;;12.90;6.25;;;;;;;;;;5094693;28;20480;-71
2022/12/29 05:07:14;;;;;;;14.48;6.25;;;;;;;;;;5095333;28;20406;-70
2022/12/29 05:09:39;;;;;;;11.38;5.15;;;;;;;;;;5095491;28;20084;-72
2022/12/29 05:12:06;;;;;;;11.32;5.53;;;;;;;;;;5094045;28;20032;-72
2022/12/29 05:14:31;;;;;;;9.07;5.15;;;;;;;;;;5095684;28;20012;-72
2022/12/29 05:16:57;;;;;;;9.35;5.80;;;;;;;;;;5095306;28;20121;-71
2022/12/29 05:19:22;;;;;;;10.80;5.82;;;;;;;;;;5096053;28;20028;-72
2022/12/29 05:21:47;;;;;;;11.48;7.32;;;;;;;;;;5095415;28;20111;-72
2022/12/29 05:24:13;;;;;;;12.45;5.88;;;;;;;;;;5095272;28;20027;-72
2022/12/29 05:26:39;;;;;;;9.65;4.45;;;;;;;;;;5095299;28;20048;-71
2022/12/29 05:29:04;;;;;;;12.57;6.15;;;;;;;;;;5095355;28;20012;-74
2022/12/29 05:31:30;;;;;;;13.80;7.53;;;;;;;;;;5094965;28;20450;-73
2022/12/29 05:33:55;;;;;;;15.45;6.60;;;;;;;;;;5093960;28;20104;-72
2022/12/29 05:36:20;;;;;;;15.13;7.28;;;;;;;;;;5095357;28;20614;-73
2022/12/29 05:38:46;;;;;;;12.07;7.50;;;;;;;;;;5093587;28;20048;-73
2022/12/29 05:41:11;;;;;;;17.48;5.68;;;;;;;;;;5094580;28;20023;-72
2022/12/29 05:43:37;;;;;;;16.33;6.75;;;;;;;;;;5094825;28;20435;-74
2022/12/29 05:46:03;;;;;;;16.48;6.70;;;;;;;;;;5094865;28;20020;-73
2022/12/29 05:48:28;;;;;;;12.40;6.30;;;;;;;;;;5093589;28;20461;-72
2022/12/29 05:50:53;;;;;;;17.13;7.57;;;;;;;;;;5094898;28;20160;-73
2022/12/29 05:53:19;;;;;;;15.15;7.78;;;;;;;;;;5093333;28;20097;-73
2022/12/29 05:55:46;;;;;;;15.40;7.25;;;;;;;;;;5093629;28;20074;-74
2022/12/29 05:58:11;;;;;;;13.77;7.22;;;;;;;;;;5095061;28;20027;-72
2022/12/29 06:00:37;;;;;;;12.98;6.60;;;;;;;;;;5094994;28;20384;-72
2022/12/29 06:03:02;;;;;;;16.52;7.55;;;;;;;;;;5093078;28;20044;-73
2022/12/29 06:05:29;;;;;;;12.02;7.43;;;;;;;;;;5094207;28;20044;-73
2022/12/29 06:07:55;;;;;;;16.15;7.60;;;;;;;;;;5094091;28;20031;-73
2022/12/29 06:10:20;;;;;;;15.18;7.20;;;;;;;;;;5092579;28;20042;-73
2022/12/29 06:12:46;;;;;;;16.48;7.82;;;;;;;;;;5094544;28;20020;-74
2022/12/29 06:15:12;;;;;;;16.98;7.90;;;;;;;;;;5093974;28;20021;-74
2022/12/29 06:17:37;;;;;;;19.92;8.57;;;;;;;;;;5092988;28;20082;-73
2022/12/29 06:20:03;;;;;;;16.52;8.38;;;;;;;;;;5092887;28;20024;-73
2022/12/29 06:22:28;;;;;;;14.02;6.63;;;;;;;;;;5092696;28;20023;-73
2022/12/29 06:24:54;;;;;;;18.58;7.32;;;;;;;;;;5092585;28;20024;-74
2022/12/29 06:27:19;;;;;;;24.60;8.35;;;;;;;;;;5093501;28;20036;-72
2022/12/29 06:29:45;;;;;;;11.95;5.47;;;;;;;;;;5092136;28;20032;-72
2022/12/29 06:32:11;;;;;;;27.05;7.57;;;;;;;;;;5093582;28;20174;-73
2022/12/29 06:34:36;;;;;;;12.40;5.93;;;;;;;;;;5092268;28;20114;-71
2022/12/29 06:37:02;;;;;;;25.88;7.32;;;;;;;;;;5092157;28;20023;-73
2022/12/29 06:39:27;;;;;;;30.60;8.48;;;;;;;;;;5092408;28;20469;-73
2022/12/29 06:41:53;;;;;;;24.48;8.63;;;;;;;;;;5093388;28;20012;-73
2022/12/29 06:44:19;;;;;;;28.85;8.55;;;;;;;;;;5093402;28;20041;-71
2022/12/29 06:46:45;;;;;;;25.45;7.32;;;;;;;;;;5093115;28;20020;-71
2022/12/29 06:49:11;;;;;;;28.42;8.45;;;;;;;;;;5091681;28;20035;-72
2022/12/29 06:51:37;;;;;;;30.50;8.57;;;;;;;;;;5091925;28;20120;-71
2022/12/29 06:54:02;;;;;;;32.30;9.32;;;;;;;;;;5092998;28;20460;-71
2022/12/29 06:56:27;;;;;;;37.42;9.60;;;;;;;;;;5092933;28;20022;-71
2022/12/29 06:58:53;;;;;;;27.13;8.68;;;;;;;;;;5093034;28;20020;-71
2022/12/29 07:01:18;;;;;;;31.23;9.32;;;;;;;;;;5092729;28;20016;-72
2022/12/29 07:03:44;;;;;;;32.60;9.77;;;;;;;;;;5092359;28;20068;-71
2022/12/29 07:06:09;;;;;;;41.92;10.73;;;;;;;;;;5091312;28;20043;-71
2022/12/29 07:08:35;;;;;;;28.77;9.70;;;;;;;;;;5092705;28;20016;-72
2022/12/29 07:11:00;;;;;;;57.97;11.57;;;;;;;;;;5092538;28;20039;-72
2022/12/29 07:13:26;;;;;;;44.58;12.40;;;;;;;;;;5090924;28;20023;-72
2022/12/29 07:15:51;;;;;;;51.58;14.00;;;;;;;;;;5092585;28;20042;-72
2022/12/29 07:18:17;;;;;;;55.13;14.00;;;;;;;;;;5093113;28;20044;-73
2022/12/29 07:20:42;;;;;;;42.10;12.93;;;;;;;;;;5092915;28;20050;-72
2022/12/29 07:23:09;;;;;;;44.50;10.55;;;;;;;;;;5092554;28;20019;-72
2022/12/29 07:25:35;;;;;;;46.22;11.52;;;;;;;;;;5093383;28;20016;-71
2022/12/29 07:28:01;;;;;;;37.15;11.85;;;;;;;;;;5092830;28;20023;-73
2022/12/29 07:30:27;;;;;;;101.53;14.40;;;;;;;;;;5092071;28;20028;-73
2022/12/29 07:32:52;;;;;;;43.78;13.25;;;;;;;;;;5092618;28;20020;-70
2022/12/29 07:35:18;;;;;;;110.63;16.30;;;;;;;;;;5092443;28;20020;-72
2022/12/29 07:37:43;;;;;;;46.90;12.98;;;;;;;;;;5091096;28;20013;-73
2022/12/29 07:40:09;;;;;;;60.33;12.35;;;;;;;;;;5092361;28;20036;-72
2022/12/29 07:42:35;;;;;;;68.97;13.68;;;;;;;;;;5092272;28;20027;-72
2022/12/29 07:45:00;;;;;;;59.72;13.23;;;;;;;;;;5092029;28;20069;-72
2022/12/29 07:47:27;;;;;;;37.35;11.48;;;;;;;;;;5092335;28;20012;-73
2022/12/29 07:49:52;;;;;;;49.50;11.90;;;;;;;;;;5092284;28;20023;-72
2022/12/29 07:52:18;;;;;;;57.95;12.25;;;;;;;;;;5090615;28;20397;-72
2022/12/29 07:54:43;;;;;;;48.40;12.25;;;;;;;;;;5090873;28;20016;-72
2022/12/29 07:57:08;;;;;;;38.58;10.95;;;;;;;;;;5091827;28;20023;-72
2022/12/29 07:59:34;;;;;;;42.25;9.63;;;;;;;;;;5090812;28;20028;-72
2022/12/29 08:02:00;;;;;;;27.10;6.32;;;;;;;;;;5092135;28;20418;-71
2022/12/29 08:04:25;;;;;;;37.30;10.57;;;;;;;;;;5092466;28;20085;-71
2022/12/29 08:06:50;;;;;;;26.33;9.23;;;;;;;;;;5092022;28;20048;-72
2022/12/29 08:09:16;;;;;;;25.40;8.90;;;;;;;;;;5090741;28;20081;-71
2022/12/29 08:11:43;;;;;;;27.77;9.02;;;;;;;;;;5091757;28;20490;-71
2022/12/29 08:14:08;;;;;;;20.30;7.47;;;;;;;;;;5092010;28;20012;-72
2022/12/29 08:16:34;;;;;;;21.13;5.53;;;;;;;;;;5091782;28;20034;-72
2022/12/29 08:19:00;;;;;;;16.65;7.07;;;;;;;;;;5090521;28;20069;-72
2022/12/29 08:21:27;;;;;;;20.85;8.10;;;;;;;;;;5091798;28;20020;-74
2022/12/29 08:23:52;;;;;;;15.10;5.72;;;;;;;;;;5091869;28;20023;-72
2022/12/29 08:26:17;;;;;;;11.65;5.15;;;;;;;;;;5089929;28;20022;-73
2022/12/29 08:28:43;;;;;;;15.35;5.28;;;;;;;;;;5091775;28;20024;-72
2022/12/29 08:31:08;;;;;;;14.30;5.32;;;;;;;;;;5090211;28;20209;-72
2022/12/29 08:33:34;;;;;;;10.55;4.70;;;;;;;;;;5090496;28;20017;-72
2022/12/29 08:36:00;;;;;;;14.07;5.88;;;;;;;;;;5090199;28;20034;-72
2022/12/29 08:38:27;;;;;;;13.63;6.45;;;;;;;;;;5090170;28;20097;-71
2022/12/29 08:40:52;;;;;;;13.70;5.28;;;;;;;;;;5090443;28;20027;-74
2022/12/29 08:43:17;;;;;;;14.20;5.85;;;;;;;;;;5091406;28;20016;-71
2022/12/29 08:45:43;;;;;;;13.63;6.03;;;;;;;;;;5090565;28;20031;-72
2022/12/29 08:48:08;;;;;;;12.73;5.97;;;;;;;;;;5090319;28;20427;-73
2022/12/29 08:50:34;;;;;;;18.50;6.85;;;;;;;;;;5091248;28;20097;-73
2022/12/29 08:52:59;;;;;;;17.83;6.78;;;;;;;;;;5091220;28;20376;-70
2022/12/29 08:55:24;;;;;;;18.45;5.88;;;;;;;;;;5091541;28;20012;-71
2022/12/29 08:57:51;;;;;;;22.70;6.75;;;;;;;;;;5091217;28;20024;-70
2022/12/29 09:00:17;;;;;;;22.17;8.32;;;;;;;;;;5091413;28;20103;-69
2022/12/29 09:02:43;;;;;;;13.88;5.20;;;;;;;;;;5091309;28;20127;-70
2022/12/29 09:05:09;;;;;;;12.18;6.30;;;;;;;;;;5091152;28;20482;-69
2022/12/29 09:07:35;;;;;;;12.77;5.53;;;;;;;;;;5091188;28;20020;-69
2022/12/29 09:10:00;;;;;;;11.57;5.60;;;;;;;;;;5090726;28;20382;-70
2022/12/29 09:12:27;;;;;;;6.75;3.28;;;;;;;;;;5090927;28;20024;-70
2022/12/29 09:14:52;;;;;;;7.10;3.83;;;;;;;;;;5090036;28;20016;-69
2022/12/29 09:20:02;;;;;;;7.47;3.55;;;;;;;;;;5091341;28;20019;-71
2022/12/29 09:22:28;;;;;;;4.93;2.70;;;;;;;;;;5089567;28;20024;-70
2022/12/29 09:24:53;;;;;;;5.65;2.50;;;;;;;;;;5091188;28;20012;-70
2022/12/29 09:27:19;;;;;;;6.22;3.22;;;;;;;;;;5089824;28;20507;-70
2022/12/29 09:29:44;;;;;;;5.55;2.60;;;;;;;;;;5091235;28;20024;-68
2022/12/29 09:32:10;;;;;;;3.83;2.30;;;;;;;;;;5089520;28;20051;-68
2022/12/29 09:34:35;;;;;;;3.65;2.13;;;;;;;;;;5090940;28;20380;-69
2022/12/29 09:37:00;;;;;;;2.88;1.70;;;;;;;;;;5089447;28;20036;-69
2022/12/29 09:39:26;;;;;;;3.35;1.38;;;;;;;;;;5092829;28;20107;-70
2022/12/29 09:42:02;;;;;;;3.88;1.52;;;;;;;;;;5093058;28;20020;-70
2022/12/29 09:44:46;;;;;;;7.38;2.78;;;;;;;;;;5094062;28;20016;-69
2022/12/29 09:47:13;;;;;;;34.67;5.28;;;;;;;;;;5094078;28;20016;-70
2022/12/29 09:49:49;;;;;;;0.00;0.00;;;;;;;;;;5094259;28;20052;-70
2022/12/29 09:52:29;;;;;;;0.00;0.00;;;;;;;;;;5094573;28;20020;-69
2022/12/29 09:54:57;;;;;;;0.00;0.00;;;;;;;;;;5094220;28;20023;-70
2022/12/29 09:57:27;;;;;;;0.00;0.00;;;;;;;;;;5094011;28;20020;-68
2022/12/29 09:59:56;;;;;;;0.05;0.00;;;;;;;;;;5092513;28;20099;-69
2022/12/29 10:02:28;;;;;;;0.15;0.15;;;;;;;;;;5093202;28;20131;-67
2022/12/29 10:04:53;;;;;;;0.00;0.00;;;;;;;;;;5094438;28;20044;-69
2022/12/29 10:07:22;;;;;;;0.00;0.00;;;;;;;;;;5093832;28;20412;-70
2022/12/29 10:10:01;;;;;;;0.52;0.52;;;;;;;;;;5092373;28;20020;-70
2022/12/29 10:12:38;;;;;;;0.00;0.00;;;;;;;;;;5092378;28;20546;-72
2022/12/29 10:15:13;;;;;;;0.00;0.00;;;;;;;;;;5092213;28;20027;-70
2022/12/29 10:17:57;;;;;;;0.30;0.30;;;;;;;;;;5093857;28;20402;-74
2022/12/29 10:20:29;;;;;;;0.00;0.00;;;;;;;;;;5093720;28;20035;-74
2022/12/29 10:23:10;;;;;;;0.00;0.00;;;;;;;;;;5093581;28;20110;-72
2022/12/29 10:25:40;;;;;;;0.10;0.03;;;;;;;;;;5093726;28;20041;-73
2022/12/29 10:28:10;;;;;;;0.00;0.00;;;;;;;;;;5093302;28;20024;-74
2022/12/29 10:30:36;;;;;;;0.43;0.40;;;;;;;;;;5093228;28;20050;-75
2022/12/29 10:33:04;;;;;;;0.32;0.32;;;;;;;;;;5091744;28;20464;-74
2022/12/29 10:35:40;;;;;;;0.15;0.15;;;;;;;;;;5093499;28;20020;-75
2022/12/29 10:38:33;;;;;;;0.28;0.28;;;;;;;;;;5093320;28;20421;-74
2022/12/29 10:41:02;;;;;;;0.10;0.10;;;;;;;;;;5061519;28;20024;-74
2022/12/29 10:43:29;;;;;;;0.10;0.00;;;;;;;;;;5092986;28;20099;-77
2022/12/29 10:45:58;;;;;;;0.00;0.00;;;;;;;;;;5092855;28;20024;-72
2022/12/29 10:48:30;;;;;;;0.00;0.00;;;;;;;;;;5093374;28;20027;-74
2022/12/29 10:50:57;;;;;;;0.10;0.10;;;;;;;;;;5091085;28;20060;-72
2022/12/29 10:53:25;;;;;;;0.00;0.00;;;;;;;;;;5092830;28;20081;-75
2022/12/29 10:55:51;;;;;;;0.00;0.00;;;;;;;;;;5091457;28;20036;-72
2022/12/29 10:58:17;;;;;;;0.00;0.00;;;;;;;;;;5092789;28;20020;-74
2022/12/29 11:00:43;;;;;;;0.00;0.00;;;;;;;;;;5092406;28;20089;-73
2022/12/29 11:03:09;;;;;;;0.10;0.10;;;;;;;;;;5091217;28;20059;-73
2022/12/29 11:05:41;;;;;;;0.22;0.22;;;;;;;;;;5091605;28;20020;-73
2022/12/29 11:08:18;;;;;;;0.00;0.00;;;;;;;;;;5092294;28;20035;-72
2022/12/29 11:10:45;;;;;;;0.00;0.00;;;;;;;;;;5091188;28;20066;-72
2022/12/29 11:13:24;;;;;;;0.10;0.10;;;;;;;;;;5092513;28;20032;-74
2022/12/29 11:15:50;;;;;;;0.00;0.00;;;;;;;;;;5091160;28;20028;-73
2022/12/29 11:18:22;;;;;;;0.00;0.00;;;;;;;;;;5091287;28;20020;-74
2022/12/29 11:20:48;;;;;;;0.28;0.28;;;;;;;;;;5092563;28;20031;-73
2022/12/29 11:23:32;;;;;;;0.00;0.00;;;;;;;;;;5090190;28;20385;-72
2022/12/29 11:26:10;;;;;;;0.00;0.00;;;;;;;;;;5092418;28;20373;-74
2022/12/29 11:28:35;;;;;;;0.10;0.10;;;;;;;;;;5091214;28;20016;-74
2022/12/29 11:31:02;;;;;;;0.00;0.00;;;;;;;;;;5092442;28;20513;-72
2022/12/29 11:33:28;;;;;;;0.30;0.30;;;;;;;;;;5092358;28;20357;-74
2022/12/29 11:36:05;;;;;;;0.00;0.00;;;;;;;;;;5091995;28;20012;-74
2022/12/29 11:38:35;;;;;;;0.13;0.03;;;;;;;;;;5091345;28;20046;-63
2022/12/29 11:41:01;;;;;;;0.00;0.00;;;;;;;;;;5091518;28;20388;-65
2022/12/29 11:43:33;;;;;;;0.13;0.13;;;;;;;;;;5092428;28;20472;-69
2022/12/29 11:45:59;;;;;;;0.00;0.00;;;;;;;;;;5091839;28;20023;-74
2022/12/29 11:48:27;;;;;;;0.05;0.03;;;;;;;;;;5090351;28;20024;-77
2022/12/29 11:50:54;;;;;;;0.00;0.00;;;;;;;;;;5092707;28;20043;-78
2022/12/29 11:53:36;;;;;;;0.00;0.00;;;;;;;;;;5092461;28;20053;-77
2022/12/29 11:56:07;;;;;;;0.00;0.00;;;;;;;;;;5092955;28;20073;-79
2022/12/29 11:58:34;;;;;;;0.20;0.20;;;;;;;;;;5092788;28;20023;-81
2022/12/29 12:01:23;;;;;;;0.00;0.00;;;;;;;;;;5089564;28;20337;-72
2022/12/29 12:04:08;;;;;;;0.32;0.32;;;;;;;;;;5083039;28;20047;-74
2022/12/29 12:06:38;;;;;;;0.00;0.00;;;;;;;;;;5082452;28;20032;-78
2022/12/29 12:09:07;;;;;;;0.10;0.10;;;;;;;;;;5093347;28;20024;-77
2022/12/29 12:11:37;;;;;;;0.15;0.10;;;;;;;;;;5093673;28;20028;-79
2022/12/29 12:14:12;;;;;;;0.00;0.00;;;;;;;;;;5095503;28;20012;-78
2022/12/29 12:16:43;;;;;;;0.40;0.32;;;;;;;;;;5093088;28;20111;-78
2022/12/29 12:19:14;;;;;;;0.17;0.17;;;;;;;;;;5092865;28;20061;-64
2022/12/29 12:21:41;;;;;;;0.00;0.00;;;;;;;;;;5092144;28;20020;-69
2022/12/29 12:24:23;;;;;;;0.20;0.10;;;;;;;;;;5093173;28;20024;-75
2022/12/29 12:26:55;;;;;;;0.00;0.00;;;;;;;;;;5091072;28;20028;-77
2022/12/29 12:29:37;;;;;;;0.20;0.20;;;;;;;;;;5091507;28;20103;-82
2022/12/29 12:32:11;;;;;;;0.00;0.00;;;;;;;;;;5091721;28;20032;-74
2022/12/29 12:34:42;;;;;;;0.00;0.00;;;;;;;;;;5092017;28;20024;-77
2022/12/29 12:37:14;;;;;;;0.20;0.20;;;;;;;;;;5091905;28;20551;-69
2022/12/29 12:39:47;;;;;;;0.03;0.03;;;;;;;;;;5090484;28;20020;-69
2022/12/29 12:42:18;;;;;;;0.00;0.00;;;;;;;;;;5090227;28;20024;-71
2022/12/29 12:44:56;;;;;;;0.22;0.22;;;;;;;;;;5091320;28;20016;-69
2022/12/29 12:47:45;;;;;;;0.00;0.00;;;;;;;;;;5091499;28;20069;-69
2022/12/29 12:50:24;;;;;;;0.20;0.20;;;;;;;;;;5082768;28;20127;-70
2022/12/29 12:52:53;;;;;;;0.10;0.10;;;;;;;;;;5089834;28;20040;-69
2022/12/29 12:55:18;;;;;;;0.00;0.00;;;;;;;;;;5089945;28;20027;-70
2022/12/29 12:57:57;;;;;;;0.00;0.00;;;;;;;;;;5091510;28;20077;-70
2022/12/29 13:00:23;;;;;;;0.00;0.00;;;;;;;;;;5089637;28;20100;-70
2022/12/29 13:03:17;;;;;;;1.00;0.15;;;;;;;;;;5090749;28;20023;-70
2022/12/29 13:05:43;;;;;;;0.00;0.00;;;;;;;;;;5019316;28;20524;-71
2022/12/29 13:08:32;;;;;;;0.88;0.73;;;;;;;;;;5091330;28;20016;-71
2022/12/29 13:11:02;;;;;;;0.08;0.08;;;;;;;;;;5089086;28;20032;-71
2022/12/29 13:14:00;;;;;;;1.27;0.20;;;;;;;;;;5091745;28;20024;-73
2022/12/29 13:16:44;;;;;;;0.10;0.10;;;;;;;;;;5049208;28;20482;-71
2022/12/29 13:19:09;;;;;;;0.00;0.00;;;;;;;;;;5093457;28;20389;-72
2022/12/29 13:21:48;;;;;;;0.00;0.00;;;;;;;;;;5094853;28;20023;-70
2022/12/29 13:24:25;;;;;;;0.10;0.10;;;;;;;;;;5094185;28;20024;-71
2022/12/29 13:26:54;;;;;;;0.08;0.08;;;;;;;;;;5094078;28;20019;-70
2022/12/29 13:29:27;;;;;;;0.00;0.00;;;;;;;;;;5095215;28;20031;-72
2022/12/29 13:32:04;;;;;;;0.05;0.05;;;;;;;;;;5094741;28;20111;-70
2022/12/29 13:34:47;;;;;;;0.20;0.20;;;;;;;;;;5094753;28;20024;-70
2022/12/29 13:37:16;;;;;;;0.00;0.00;;;;;;;;;;5094431;28;20024;-65
2022/12/29 13:39:51;;;;;;;0.00;0.00;;;;;;;;;;5095010;28;20024;-65
2022/12/29 13:42:17;;;;;;;0.30;0.20;;;;;;;;;;5094690;28;20022;-64
2022/12/29 13:44:45;;;;;;;0.08;0.08;;;;;;;;;;5094206;28;20024;-63
2022/12/29 13:47:13;;;;;;;0.22;0.22;;;;;;;;;;5093918;28;20020;-63
2022/12/29 13:49:39;;;;;;;0.00;0.00;;;;;;;;;;5094641;28;20508;-62
2022/12/29 13:52:27;;;;;;;0.00;0.00;;;;;;;;;;5094140;28;20035;-64
2022/12/29 13:55:11;;;;;;;0.00;0.00;;;;;;;;;;5085630;28;20081;-63
2022/12/29 13:57:55;;;;;;;0.00;0.00;;;;;;;;;;5092601;28;20031;-63
2022/12/29 14:00:22;;;;;;;0.20;0.10;;;;;;;;;;5094439;28;20027;-63
2022/12/29 14:03:11;;;;;;;0.00;0.00;;;;;;;;;;5093911;28;20028;-65
2022/12/29 14:05:39;;;;;;;0.43;0.43;;;;;;;;;;5094269;28;20096;-60
2022/12/29 14:08:05;;;;;;;0.00;0.00;;;;;;;;;;5094396;28;20024;-60
2022/12/29 14:10:46;;;;;;;0.00;0.00;;;;;;;;;;5094156;28;20407;-60
2022/12/29 14:13:16;;;;;;;0.20;0.20;;;;;;;;;;5092300;28;20342;-60
2022/12/29 14:15:43;;;;;;;0.00;0.00;;;;;;;;;;5092473;28;20028;-60
2022/12/29 14:18:17;;;;;;;0.00;0.00;;;;;;;;;;5093920;28;20016;-61
2022/12/29 14:20:52;;;;;;;0.00;0.00;;;;;;;;;;5093717;28;20044;-60
2022/12/29 14:23:26;;;;;;;0.00;0.00;;;;;;;;;;5093650;28;20737;-59
2022/12/29 14:25:52;;;;;;;0.00;0.00;;;;;;;;;;5092690;28;20016;-60
2022/12/29 14:28:23;;;;;;;0.00;0.00;;;;;;;;;;5093494;28;20394;-61
2022/12/29 14:30:52;;;;;;;0.00;0.00;;;;;;;;;;5093525;28;20035;-61
2022/12/29 14:33:18;;;;;;;0.45;0.43;;;;;;;;;;5093455;28;20085;-59
2022/12/29 14:35:49;;;;;;;0.10;0.10;;;;;;;;;;5093424;28;20461;-59
2022/12/29 14:38:15;;;;;;;0.00;0.00;;;;;;;;;;5093310;28;20031;-59
2022/12/29 14:40:41;;;;;;;0.55;0.55;;;;;;;;;;5093007;28;20086;-61
2022/12/29 14:43:12;;;;;;;0.00;0.00;;;;;;;;;;5093108;28;20104;-59
2022/12/29 14:45:39;;;;;;;0.20;0.20;;;;;;;;;;5092979;28;20046;-59
2022/12/29 14:48:21;;;;;;;0.00;0.00;;;;;;;;;;5093778;28;20093;-60
2022/12/29 14:50:46;;;;;;;0.22;0.22;;;;;;;;;;5092870;28;20078;-61
2022/12/29 14:53:30;;;;;;;0.10;0.10;;;;;;;;;;5093010;28;20389;-60
2022/12/29 14:55:57;;;;;;;0.00;0.00;;;;;;;;;;5092835;28;20475;-60
2022/12/29 14:58:25;;;;;;;0.00;0.00;;;;;;;;;;5092263;28;20024;-60
2022/12/29 15:00:50;;;;;;;0.25;0.25;;;;;;;;;;5093402;28;20016;-60
2022/12/29 15:03:16;;;;;;;0.77;0.17;;;;;;;;;;5092920;28;20093;-58
2022/12/29 15:05:46;;;;;;;0.00;0.00;;;;;;;;;;5093044;28;20012;-61
2022/12/29 15:08:12;;;;;;;0.10;0.10;;;;;;;;;;5092694;28;20020;-60
2022/12/29 15:10:41;;;;;;;0.17;0.15;;;;;;;;;;5091140;28;20028;-61
2022/12/29 15:13:14;;;;;;;0.10;0.10;;;;;;;;;;5093138;28;20461;-59
2022/12/29 15:15:40;;;;;;;0.00;0.00;;;;;;;;;;5092976;28;20024;-60
2022/12/29 15:18:14;;;;;;;0.10;0.10;;;;;;;;;;5092486;28;20016;-60
2022/12/29 15:20:41;;;;;;;0.00;0.00;;;;;;;;;;5092573;28;20500;-59
2022/12/29 15:23:11;;;;;;;1.00;0.65;;;;;;;;;;5092029;28;20031;-60